Time;durP1;ratioP1;P1;durP2;ratioP2;P2;SDS_P1;SDS_P2;PMS_P1;PMS_P2;Temp;Humidity;BMP_temperature;BMP_pressure;BME280_temperature;BME280_humidity;BME280_pressure;Samples;Min_cycle;Max_cycle;Signal;HPM_P1;HPM_P2
2021/12/07 00:01:56;;;;;;;17.25;8.90;;;2.30;99.90;;;;;;5043611;28;20093;-67
2021/12/07 00:04:23;;;;;;;17.83;9.77;;;2.30;99.90;;;;;;5038649;28;20034;-67
2021/12/07 00:06:49;;;;;;;19.20;11.35;;;2.20;99.90;;;;;;5053676;28;20413;-67
2021/12/07 00:09:16;;;;;;;20.85;9.80;;;2.20;99.90;;;;;;5061028;28;20052;-67
2021/12/07 00:11:43;;;;;;;18.00;9.52;;;2.60;99.90;;;;;;5089492;28;20050;-67
2021/12/07 00:14:14;;;;;;;18.00;9.50;;;2.10;99.90;;;;;;5039933;28;20041;-67
2021/12/07 00:16:43;;;;;;;16.38;9.18;;;2.10;99.90;;;;;;5042441;28;20490;-67
2021/12/07 00:19:09;;;;;;;19.13;10.00;;;2.10;99.90;;;;;;5040344;28;20868;-67
2021/12/07 00:21:37;;;;;;;19.38;8.93;;;1.90;99.90;;;;;;5048064;28;20056;-67
2021/12/07 00:24:04;;;;;;;17.67;9.88;;;1.90;99.90;;;;;;5063834;28;20076;-67
2021/12/07 00:26:30;;;;;;;18.08;9.10;;;1.80;99.90;;;;;;5057643;28;20041;-67
2021/12/07 00:28:56;;;;;;;17.30;9.60;;;1.80;99.90;;;;;;5051003;28;20092;-67
2021/12/07 00:31:30;;;;;;;16.23;10.05;;;1.70;99.90;;;;;;5041654;28;20057;-67
2021/12/07 00:36:35;;;;;;;17.25;9.20;;;1.60;99.90;;;;;;5063803;28;20072;-67
2021/12/07 00:39:01;;;;;;;16.83;8.82;;;1.60;99.90;;;;;;5043709;28;20125;-67
2021/12/07 00:41:26;;;;;;;17.40;9.20;;;1.60;99.90;;;;;;5070600;28;20081;-67
2021/12/07 00:43:52;;;;;;;17.25;9.15;;;1.50;99.90;;;;;;5023842;28;20076;-67
2021/12/07 00:46:19;;;;;;;17.90;9.25;;;1.50;99.90;;;;;;5075847;28;20113;-67
2021/12/07 00:48:45;;;;;;;18.83;10.43;;;2.00;99.90;;;;;;5040165;28;20103;-67
2021/12/07 00:51:10;;;;;;;16.58;8.70;;;1.40;99.90;;;;;;5041528;28;20041;-67
2021/12/07 00:53:36;;;;;;;18.15;9.85;;;1.40;99.90;;;;;;5040053;28;20045;-67
2021/12/07 00:56:03;;;;;;;18.60;9.85;;;1.50;99.90;;;;;;5092176;28;20158;-67
2021/12/07 00:58:30;;;;;;;17.65;8.75;;;1.40;99.90;;;;;;5062146;28;20046;-67
2021/12/07 01:01:03;;;;;;;17.63;8.90;;;1.40;99.90;;;;;;5033559;28;20134;-68
2021/12/07 01:03:29;;;;;;;18.73;9.90;;;1.30;99.90;;;;;;5057541;28;20057;-67
2021/12/07 01:06:06;;;;;;;19.58;9.02;;;1.30;99.90;;;;;;5033857;28;20080;-67
2021/12/07 01:09:12;;;;;;;16.13;8.77;;;1.30;99.90;;;;;;5060646;28;20057;-67
2021/12/07 01:25:14;;;;;;;15.85;8.82;;;1.20;99.90;;;;;;5071038;28;20045;-68
2021/12/07 01:27:40;;;;;;;19.00;8.90;;;1.20;99.90;;;;;;5085839;28;20044;-68
2021/12/07 01:49:34;;;;;;;18.55;9.18;;;1.10;99.90;;;;;;5052256;28;20057;-67
2021/12/07 01:51:07;;;;;;;14.57;8.43;;;1.10;99.90;;;;;;5040934;28;20112;-67
2021/12/07 02:01:53;;;;;;;15.35;8.70;;;1.10;99.90;;;;;;5047354;28;20065;-67
2021/12/07 02:04:22;;;;;;;16.23;8.23;;;1.10;99.90;;;;;;5059210;28;20057;-67
2021/12/07 02:06:48;;;;;;;15.23;8.65;;;1.40;99.90;;;;;;5046985;28;20107;-67
2021/12/07 02:09:13;;;;;;;13.85;8.07;;;1.10;99.90;;;;;;5071510;28;20488;-67
2021/12/07 02:11:46;;;;;;;16.42;8.02;;;1.20;99.90;;;;;;5051761;28;20505;-67
2021/12/07 02:14:18;;;;;;;16.75;8.73;;;1.10;99.90;;;;;;5060332;28;20053;-68
2021/12/07 02:16:53;;;;;;;17.15;8.75;;;1.10;99.90;;;;;;5059611;28;20392;-68
2021/12/07 02:19:19;;;;;;;17.55;9.15;;;1.10;99.90;;;;;;5048207;28;20073;-68
2021/12/07 02:21:45;;;;;;;15.05;8.57;;;1.10;99.90;;;;;;5062748;28;20241;-67
2021/12/07 02:24:11;;;;;;;17.13;9.23;;;1.10;99.90;;;;;;5045642;28;20049;-67
2021/12/07 02:26:37;;;;;;;15.68;8.65;;;1.10;99.90;;;;;;5037109;28;20075;-67
2021/12/07 02:29:04;;;;;;;17.48;9.05;;;1.10;99.90;;;;;;5063872;28;20086;-67
2021/12/07 02:31:30;;;;;;;15.40;8.95;;;1.10;99.90;;;;;;5045113;28;20065;-67
2021/12/07 02:33:56;;;;;;;15.27;8.30;;;1.10;99.90;;;;;;5039440;28;20084;-67
2021/12/07 02:36:22;;;;;;;14.93;7.45;;;1.00;99.90;;;;;;5038677;28;20037;-68
2021/12/07 02:38:49;;;;;;;16.92;8.95;;;1.00;99.90;;;;;;5040146;28;20105;-68
2021/12/07 02:41:15;;;;;;;16.75;9.02;;;1.00;99.90;;;;;;5055090;28;20048;-68
2021/12/07 02:43:41;;;;;;;15.25;7.35;;;1.00;99.90;;;;;;5047705;28;20048;-67
2021/12/07 02:46:07;;;;;;;17.67;8.63;;;0.90;99.90;;;;;;5046614;28;20053;-67
2021/12/07 02:48:33;;;;;;;16.60;9.00;;;1.20;99.90;;;;;;5074395;28;20119;-68
2021/12/07 02:51:00;;;;;;;15.23;8.13;;;0.90;99.90;;;;;;5055861;28;20041;-67
2021/12/07 02:53:27;;;;;;;17.73;9.27;;;0.90;99.90;;;;;;5053427;28;20049;-68
2021/12/07 02:55:55;;;;;;;15.85;8.43;;;0.90;99.90;;;;;;5043931;28;20453;-68
2021/12/07 02:58:21;;;;;;;18.58;9.75;;;0.90;99.90;;;;;;5050537;28;20045;-68
2021/12/07 03:00:57;;;;;;;19.25;9.63;;;0.90;99.90;;;;;;5059359;28;20076;-68
2021/12/07 03:03:23;;;;;;;16.95;8.70;;;0.90;99.90;;;;;;5044503;28;20056;-68
2021/12/07 03:06:14;;;;;;;17.73;8.73;;;0.90;99.90;;;;;;5037488;28;20044;-67
2021/12/07 03:28:06;;;;;;;20.92;10.35;;;1.00;99.90;;;;;;5095106;28;20088;-68
2021/12/07 03:30:32;;;;;;;19.38;10.07;;;0.90;99.90;;;;;;5059799;28;20070;-68
2021/12/07 03:33:00;;;;;;;20.08;10.40;;;0.90;99.90;;;;;;5043392;28;20046;-68
2021/12/07 03:35:26;;;;;;;22.15;12.40;;;0.90;99.90;;;;;;5041400;28;20050;-68
2021/12/07 03:37:53;;;;;;;21.10;11.50;;;0.90;99.90;;;;;;5043584;28;20053;-68
2021/12/07 03:40:19;;;;;;;21.40;11.35;;;0.90;99.90;;;;;;5023530;28;20081;-68
2021/12/07 03:42:44;;;;;;;23.08;10.27;;;0.90;99.90;;;;;;5041859;28;20560;-68
2021/12/07 03:45:11;;;;;;;22.88;11.63;;;0.90;99.90;;;;;;5041240;28;20084;-68
2021/12/07 03:47:37;;;;;;;21.08;10.55;;;1.00;99.90;;;;;;5041926;28;20065;-67
2021/12/07 03:50:04;;;;;;;22.95;11.30;;;1.10;99.90;;;;;;5058660;28;20130;-68
2021/12/07 03:52:30;;;;;;;22.80;12.77;;;1.00;99.90;;;;;;5039599;28;20474;-67
2021/12/07 03:54:55;;;;;;;20.45;10.60;;;1.20;99.90;;;;;;5075832;28;20049;-68
2021/12/07 03:57:21;;;;;;;22.35;11.23;;;1.00;99.90;;;;;;5039510;28;20436;-68
2021/12/07 03:59:47;;;;;;;22.42;11.20;;;1.00;99.90;;;;;;5040953;28;20085;-67
2021/12/07 04:02:13;;;;;;;19.83;10.75;;;1.00;99.90;;;;;;5023160;28;20049;-67
2021/12/07 04:04:39;;;;;;;21.60;10.57;;;1.10;99.90;;;;;;5040369;28;20139;-68
2021/12/07 04:07:05;;;;;;;25.98;12.38;;;1.00;99.90;;;;;;5042927;28;20040;-68
2021/12/07 04:09:32;;;;;;;20.52;9.68;;;1.30;99.90;;;;;;5022864;28;20100;-68
2021/12/07 04:11:59;;;;;;;23.63;11.95;;;1.20;99.90;;;;;;5041562;28;20058;-67
2021/12/07 04:14:25;;;;;;;23.15;12.15;;;1.00;99.90;;;;;;5055688;28;20077;-67
2021/12/07 04:16:51;;;;;;;20.17;10.80;;;1.00;99.90;;;;;;5074873;28;20085;-68
2021/12/07 04:19:16;;;;;;;23.27;11.13;;;0.90;99.90;;;;;;5039796;28;20053;-67
2021/12/07 04:21:42;;;;;;;23.20;11.80;;;0.90;99.90;;;;;;5041994;28;20057;-68
2021/12/07 04:24:08;;;;;;;21.90;11.27;;;0.90;99.90;;;;;;5074021;28;20113;-67
2021/12/07 04:26:34;;;;;;;26.88;12.23;;;0.80;99.90;;;;;;5072597;28;20045;-67
2021/12/07 04:29:00;;;;;;;21.55;11.65;;;0.80;99.90;;;;;;5074935;28;20393;-67
2021/12/07 04:31:26;;;;;;;23.88;10.93;;;0.80;99.90;;;;;;5072095;28;20076;-68
2021/12/07 04:33:52;;;;;;;23.45;11.27;;;1.00;99.90;;;;;;5041216;28;20095;-68
2021/12/07 04:36:18;;;;;;;25.63;12.90;;;0.70;99.90;;;;;;5072434;28;20037;-68
2021/12/07 04:38:44;;;;;;;27.80;13.45;;;0.70;99.90;;;;;;5041570;28;20053;-68
2021/12/07 04:41:10;;;;;;;28.58;14.57;;;0.70;99.90;;;;;;5042060;28;20412;-68
2021/12/07 04:43:38;;;;;;;27.55;12.90;;;0.70;99.90;;;;;;5055682;28;20045;-68
2021/12/07 04:46:16;;;;;;;26.38;12.63;;;0.70;99.90;;;;;;5024386;28;20568;-67
2021/12/07 04:59:26;;;;;;;22.98;11.27;;;0.60;99.90;;;;;;5041960;28;20050;-67
2021/12/07 05:01:52;;;;;;;25.98;13.68;;;0.60;99.90;;;;;;5071699;28;20060;-68
2021/12/07 05:04:24;;;;;;;29.88;13.00;;;0.70;99.90;;;;;;5040370;28;20046;-67
2021/12/07 05:06:54;;;;;;;24.63;12.90;;;0.70;99.90;;;;;;5040363;28;20050;-67
2021/12/07 05:09:40;;;;;;;31.38;14.07;;;0.60;99.90;;;;;;5039765;28;20057;-68
2021/12/07 05:14:37;;;;;;;25.02;12.18;;;0.60;99.90;;;;;;5039387;28;20137;-67
2021/12/07 05:38:27;;;;;;;26.70;11.27;;;0.70;99.90;;;;;;5041247;28;20058;-67
2021/12/07 05:40:53;;;;;;;26.20;12.50;;;0.60;99.90;;;;;;5040059;28;20076;-67
2021/12/07 05:43:19;;;;;;;27.65;12.02;;;0.60;99.90;;;;;;5038238;28;20045;-67
2021/12/07 05:45:45;;;;;;;23.98;10.00;;;0.60;99.90;;;;;;5039719;28;20045;-68
2021/12/07 05:48:10;;;;;;;28.40;10.70;;;0.60;99.90;;;;;;5053924;28;20051;-68
2021/12/07 05:50:39;;;;;;;24.98;11.45;;;0.60;99.90;;;;;;5073030;28;20052;-68
2021/12/07 05:53:08;;;;;;;24.33;12.30;;;0.60;99.90;;;;;;5052965;28;20089;-68
2021/12/07 05:55:34;;;;;;;23.63;11.55;;;0.70;99.90;;;;;;5055806;28;20149;-68
2021/12/07 05:58:00;;;;;;;25.48;12.07;;;0.60;99.90;;;;;;5038856;28;20053;-67
2021/12/07 06:00:29;;;;;;;24.50;11.73;;;0.60;99.90;;;;;;5071212;28;20104;-68
2021/12/07 06:03:04;;;;;;;28.88;11.68;;;0.60;99.90;;;;;;5072880;28;20049;-68
2021/12/07 06:05:31;;;;;;;26.35;11.45;;;0.60;99.90;;;;;;5070729;28;20104;-68
2021/12/07 06:07:57;;;;;;;24.90;11.13;;;0.60;99.90;;;;;;5039123;28;20060;-68
2021/12/07 06:10:23;;;;;;;24.40;11.48;;;0.60;99.90;;;;;;5037477;28;20072;-68
2021/12/07 06:12:49;;;;;;;22.00;12.10;;;0.60;99.90;;;;;;5039669;28;20053;-68
2021/12/07 06:15:18;;;;;;;24.27;12.00;;;0.60;99.90;;;;;;5040149;28;20081;-68
2021/12/07 06:17:45;;;;;;;24.88;11.25;;;0.60;99.90;;;;;;5039158;28;20108;-68
2021/12/07 06:20:11;;;;;;;22.58;10.48;;;0.60;99.90;;;;;;5072754;28;20050;-68
2021/12/07 06:22:37;;;;;;;30.38;12.85;;;0.60;99.90;;;;;;5070109;28;20068;-68
2021/12/07 06:25:04;;;;;;;21.00;10.45;;;0.60;99.90;;;;;;5039592;28;20049;-68
2021/12/07 06:27:30;;;;;;;25.85;12.55;;;0.60;99.90;;;;;;5038653;28;20041;-68
2021/12/07 06:29:57;;;;;;;21.48;10.25;;;1.00;99.90;;;;;;5040387;28;20045;-69
2021/12/07 06:32:24;;;;;;;23.92;10.93;;;0.60;99.90;;;;;;5039461;28;20053;-68
2021/12/07 06:34:50;;;;;;;26.33;10.65;;;2.10;99.90;;;;;;5054641;28;20458;-68
2021/12/07 06:37:15;;;;;;;22.00;10.38;;;1.10;99.90;;;;;;5058166;28;20049;-68
2021/12/07 06:39:41;;;;;;;22.48;9.57;;;0.70;99.90;;;;;;5057602;28;20037;-68
2021/12/07 06:42:07;;;;;;;23.15;9.98;;;0.80;99.90;;;;;;5043127;28;20041;-68
2021/12/07 06:44:33;;;;;;;23.48;10.23;;;0.80;99.90;;;;;;5042349;28;20052;-68
2021/12/07 06:46:59;;;;;;;23.85;10.98;;;0.80;99.90;;;;;;5042993;28;20055;-69
2021/12/07 06:49:24;;;;;;;22.88;10.40;;;0.90;99.90;;;;;;5041971;28;20057;-68
2021/12/07 06:51:51;;;;;;;25.05;10.95;;;0.90;99.90;;;;;;5041932;28;20497;-68
2021/12/07 06:54:17;;;;;;;26.92;11.70;;;0.90;99.90;;;;;;5059059;28;20049;-68
2021/12/07 06:56:43;;;;;;;24.02;10.30;;;0.90;99.90;;;;;;5074312;28;20045;-68
2021/12/07 06:59:09;;;;;;;22.38;10.75;;;0.90;99.90;;;;;;5044124;28;20133;-68
2021/12/07 07:01:34;;;;;;;24.58;10.70;;;0.90;99.90;;;;;;5041462;28;20053;-68
2021/12/07 07:04:01;;;;;;;23.73;10.63;;;0.90;99.90;;;;;;5042789;28;20053;-68
2021/12/07 07:06:27;;;;;;;21.02;10.35;;;0.90;99.90;;;;;;5074868;28;20103;-68
2021/12/07 07:08:53;;;;;;;24.33;11.18;;;0.90;99.90;;;;;;5057851;28;20079;-68
2021/12/07 07:11:20;;;;;;;17.70;9.02;;;0.90;99.90;;;;;;5041766;28;20129;-68
2021/12/07 07:13:47;;;;;;;19.15;10.05;;;0.90;99.90;;;;;;5039569;28;20097;-68
2021/12/07 07:16:14;;;;;;;21.15;10.38;;;0.90;99.90;;;;;;5043872;28;20037;-68
2021/12/07 07:18:40;;;;;;;20.33;10.20;;;1.00;99.90;;;;;;5039785;28;20571;-69
2021/12/07 07:21:07;;;;;;;19.88;9.15;;;0.90;99.90;;;;;;5043410;28;20627;-68
2021/12/07 07:23:33;;;;;;;24.23;10.10;;;0.90;99.90;;;;;;5040528;28;20057;-68
2021/12/07 07:25:59;;;;;;;23.08;11.35;;;0.90;99.90;;;;;;5074244;28;20060;-69
2021/12/07 07:28:27;;;;;;;21.50;10.90;;;0.90;99.90;;;;;;5041856;28;20480;-68
2021/12/07 07:30:54;;;;;;;21.80;10.77;;;0.90;99.90;;;;;;5039652;28;20049;-68
2021/12/07 07:33:20;;;;;;;25.02;12.63;;;0.90;99.90;;;;;;5025404;28;20046;-68
2021/12/07 07:35:47;;;;;;;19.58;9.63;;;1.10;99.90;;;;;;5040530;28;20038;-68
2021/12/07 07:38:14;;;;;;;22.67;10.07;;;0.90;99.90;;;;;;5039141;28;20029;-68
2021/12/07 07:40:43;;;;;;;23.40;9.93;;;0.80;99.90;;;;;;5041224;28;20080;-68
2021/12/07 07:43:08;;;;;;;22.13;10.13;;;0.80;99.90;;;;;;5040720;28;20049;-68
2021/12/07 07:45:34;;;;;;;20.48;9.27;;;0.80;99.90;;;;;;5041537;28;20049;-68
2021/12/07 07:48:00;;;;;;;24.98;10.82;;;0.80;99.90;;;;;;5038749;28;20053;-69
2021/12/07 07:50:26;;;;;;;21.52;11.35;;;1.20;99.90;;;;;;5058537;28;20120;-70
2021/12/07 07:52:51;;;;;;;25.67;11.20;;;1.20;99.90;;;;;;5038997;28;20068;-68
2021/12/07 07:55:17;;;;;;;21.55;9.18;;;1.00;99.90;;;;;;5043301;28;20056;-68
2021/12/07 07:57:43;;;;;;;20.85;9.65;;;1.00;99.90;;;;;;5041275;28;20048;-68
2021/12/07 08:00:13;;;;;;;19.13;8.05;;;1.00;99.90;;;;;;5040090;28;20057;-68
2021/12/07 08:02:39;;;;;;;21.48;10.05;;;1.00;99.90;;;;;;5040551;28;20132;-68
2021/12/07 08:05:05;;;;;;;23.33;9.80;;;1.00;99.90;;;;;;5040991;28;20077;-69
2021/12/07 08:07:31;;;;;;;20.50;8.52;;;1.00;99.90;;;;;;5024567;28;20038;-68
2021/12/07 08:09:56;;;;;;;20.02;8.95;;;1.00;99.90;;;;;;5039441;28;20088;-69
2021/12/07 08:12:22;;;;;;;20.40;8.77;;;1.00;99.90;;;;;;5024865;28;20061;-68
2021/12/07 08:14:48;;;;;;;22.73;9.52;;;1.10;99.90;;;;;;5039699;28;20037;-68
2021/12/07 08:17:14;;;;;;;18.92;8.88;;;1.00;99.90;;;;;;5074117;28;20088;-69
2021/12/07 08:19:40;;;;;;;18.17;8.38;;;1.10;99.90;;;;;;5042651;28;20105;-68
2021/12/07 08:22:06;;;;;;;20.55;8.27;;;1.10;99.90;;;;;;5039581;28;20214;-69
2021/12/07 08:24:32;;;;;;;22.42;9.38;;;1.10;99.90;;;;;;5008058;28;20069;-69
2021/12/07 08:26:57;;;;;;;19.60;9.75;;;1.10;99.90;;;;;;5038971;28;20052;-68
2021/12/07 08:29:23;;;;;;;18.85;7.95;;;1.10;99.90;;;;;;5041258;28;20101;-69
2021/12/07 08:31:49;;;;;;;19.55;8.55;;;1.10;99.90;;;;;;5051279;28;20413;-69
2021/12/07 08:34:15;;;;;;;18.67;8.88;;;1.20;99.90;;;;;;5043000;28;20083;-69
2021/12/07 08:36:42;;;;;;;20.35;9.45;;;1.20;99.90;;;;;;5071754;28;20045;-69
2021/12/07 08:39:09;;;;;;;20.17;9.65;;;1.20;99.90;;;;;;5032554;28;20045;-69
2021/12/07 08:41:34;;;;;;;19.38;8.63;;;1.20;99.90;;;;;;5041535;28;20034;-69
2021/12/07 08:44:00;;;;;;;18.83;8.25;;;1.30;99.90;;;;;;5038377;28;20124;-68
2021/12/07 08:46:26;;;;;;;21.58;9.43;;;1.50;99.90;;;;;;5041371;28;20618;-69
2021/12/07 08:48:52;;;;;;;21.40;9.15;;;1.40;99.90;;;;;;5039910;28;20068;-69
2021/12/07 08:51:18;;;;;;;18.52;7.63;;;1.40;99.90;;;;;;5040142;28;20107;-68
2021/12/07 08:53:58;;;;;;;16.25;7.18;;;1.50;99.90;;;;;;5072285;28;20045;-68
2021/12/07 09:01:53;;;;;;;19.38;7.93;;;1.70;99.90;;;;;;5018450;28;20117;-68
2021/12/07 09:04:20;;;;;;;20.27;7.95;;;1.80;99.90;;;;;;5021038;28;20061;-69
2021/12/07 09:06:47;;;;;;;21.77;8.23;;;1.80;99.90;;;;;;5021216;28;20069;-68
2021/12/07 09:09:14;;;;;;;21.25;7.90;;;1.90;99.90;;;;;;5068436;28;20050;-68
2021/12/07 09:11:40;;;;;;;21.08;7.85;;;2.10;99.90;;;;;;5064587;28;20033;-69
2021/12/07 09:14:13;;;;;;;18.50;7.20;;;1.90;99.90;;;;;;5070726;28;20052;-68
2021/12/07 09:16:40;;;;;;;17.48;8.18;;;2.00;99.90;;;;;;5040963;28;20072;-68
2021/12/07 09:19:06;;;;;;;22.17;8.70;;;2.00;99.90;;;;;;5039719;28;20120;-68
2021/12/07 09:21:32;;;;;;;17.52;7.82;;;2.00;99.90;;;;;;5039584;28;20123;-68
2021/12/07 09:23:59;;;;;;;19.20;7.72;;;2.10;99.90;;;;;;5038730;28;20045;-68
2021/12/07 09:26:25;;;;;;;20.90;8.68;;;2.20;99.90;;;;;;5039077;28;20113;-69
2021/12/07 09:28:51;;;;;;;17.77;7.53;;;2.20;99.90;;;;;;5039874;28;20073;-69
2021/12/07 09:31:17;;;;;;;18.08;8.02;;;2.50;99.90;;;;;;5037563;28;20065;-68
2021/12/07 09:33:43;;;;;;;13.70;6.57;;;2.30;99.90;;;;;;5056416;28;20105;-68
2021/12/07 09:36:12;;;;;;;19.50;7.43;;;2.30;99.90;;;;;;5037368;28;20045;-68
2021/12/07 09:38:39;;;;;;;20.75;7.25;;;2.40;99.90;;;;;;5040336;28;20041;-69
2021/12/07 09:41:07;;;;;;;17.50;8.38;;;2.40;99.90;;;;;;5040424;28;20053;-68
2021/12/07 09:43:34;;;;;;;20.50;8.40;;;2.60;99.90;;;;;;5037436;28;20060;-68
2021/12/07 09:46:00;;;;;;;16.92;8.20;;;2.50;99.90;;;;;;5040035;28;20060;-69
2021/12/07 09:48:26;;;;;;;19.10;8.18;;;2.50;99.90;;;;;;5037600;28;20042;-68
2021/12/07 09:50:54;;;;;;;18.80;7.57;;;2.60;99.90;;;;;;5041046;28;20049;-69
2021/12/07 09:53:21;;;;;;;17.17;7.18;;;2.80;99.90;;;;;;5036703;28;20042;-67
2021/12/07 09:55:49;;;;;;;14.02;7.40;;;2.80;99.90;;;;;;5040343;28;20059;-69
2021/12/07 09:58:15;;;;;;;17.02;7.03;;;2.80;99.90;;;;;;5039456;28;20055;-69
2021/12/07 10:00:43;;;;;;;17.23;6.60;;;3.00;99.90;;;;;;5038325;28;20064;-69
2021/12/07 10:03:10;;;;;;;16.85;6.80;;;3.10;99.90;;;;;;5040372;28;20519;-68
2021/12/07 10:05:40;;;;;;;20.40;7.50;;;3.20;99.90;;;;;;5070442;28;20041;-69
2021/12/07 10:08:07;;;;;;;11.48;5.25;;;3.20;99.90;;;;;;5072287;28;20068;-68
2021/12/07 10:10:48;;;;;;;14.77;6.35;;;3.20;99.90;;;;;;5038925;28;20054;-69
2021/12/07 10:13:15;;;;;;;16.92;6.55;;;3.50;99.90;;;;;;5037494;28;20425;-69
2021/12/07 10:15:43;;;;;;;14.52;5.50;;;3.40;99.90;;;;;;5038037;28;20049;-69
2021/12/07 10:18:16;;;;;;;12.70;6.45;;;3.80;99.90;;;;;;5019465;28;20069;-69
2021/12/07 10:20:48;;;;;;;13.25;6.18;;;3.60;99.90;;;;;;5038695;28;20049;-70
2021/12/07 10:23:13;;;;;;;15.90;5.68;;;3.50;99.90;;;;;;5069807;28;20107;-71
2021/12/07 10:25:40;;;;;;;10.10;5.38;;;3.30;99.90;;;;;;5038758;28;20045;-69
2021/12/07 10:28:43;;;;;;;15.98;5.47;;;3.30;99.90;;;;;;5038738;28;20049;-69
2021/12/07 10:31:09;;;;;;;14.05;5.50;;;3.60;99.90;;;;;;5037950;28;20050;-69
2021/12/07 10:33:45;;;;;;;12.35;6.05;;;4.00;99.90;;;;;;5040114;28;20048;-70
2021/12/07 10:36:18;;;;;;;10.95;5.55;;;4.00;99.90;;;;;;5017082;28;20080;-70
2021/12/07 10:39:16;;;;;;;9.75;5.13;;;4.30;99.90;;;;;;5018475;28;20045;-70
2021/12/07 10:41:49;;;;;;;15.02;5.63;;;4.40;99.90;;;;;;5014856;28;20569;-70
2021/12/07 10:44:24;;;;;;;14.57;6.85;;;4.80;99.90;;;;;;5016548;28;20058;-70
2021/12/07 10:46:58;;;;;;;12.88;4.97;;;5.20;99.90;;;;;;5020127;28;20050;-69
2021/12/07 10:49:29;;;;;;;13.00;4.63;;;5.40;99.90;;;;;;5018718;28;20066;-69
2021/12/07 10:52:18;;;;;;;11.63;5.32;;;5.50;99.90;;;;;;5027102;28;20041;-70
2021/12/07 10:55:00;;;;;;;13.75;5.60;;;5.40;99.90;;;;;;5038681;28;20037;-68
2021/12/07 10:57:32;;;;;;;11.43;4.72;;;5.30;99.90;;;;;;5037771;28;20045;-68
2021/12/07 11:00:01;;;;;;;7.78;3.72;;;5.30;99.90;;;;;;5039343;28;20056;-68
2021/12/07 11:02:33;;;;;;;12.07;5.07;;;5.30;99.90;;;;;;5038683;28;20461;-68
2021/12/07 11:05:01;;;;;;;14.13;5.35;;;5.20;99.90;;;;;;5038150;28;20071;-68
2021/12/07 11:07:29;;;;;;;10.05;4.63;;;5.00;99.90;;;;;;5039750;28;20038;-68
2021/12/07 11:10:09;;;;;;;10.30;4.53;;;4.80;99.90;;;;;;5038023;28;20394;-68
2021/12/07 11:12:51;;;;;;;9.60;4.88;;;4.70;99.90;;;;;;5038908;28;20042;-68
2021/12/07 11:15:23;;;;;;;14.00;4.80;;;4.70;99.90;;;;;;5039717;28;20037;-67
2021/12/07 11:17:50;;;;;;;14.50;5.60;;;4.60;99.90;;;;;;5036900;28;20511;-68
2021/12/07 11:20:16;;;;;;;14.55;5.25;;;4.60;99.90;;;;;;5038795;28;20459;-68
2021/12/07 11:22:51;;;;;;;11.25;6.47;;;4.60;99.90;;;;;;5035984;28;20057;-68
2021/12/07 11:31:31;;;;;;;13.32;5.55;;;4.60;99.90;;;;;;5041028;28;20083;-68
2021/12/07 11:34:10;;;;;;;9.88;4.97;;;4.50;99.90;;;;;;5020374;28;20085;-67
2021/12/07 11:36:41;;;;;;;10.63;5.43;;;4.50;99.90;;;;;;5073766;28;20045;-69
2021/12/07 11:39:35;;;;;;;13.95;5.25;;;4.80;99.90;;;;;;5040337;28;20045;-70
2021/12/07 11:42:12;;;;;;;12.15;5.32;;;4.60;99.90;;;;;;5041935;28;20049;-70
2021/12/07 11:45:07;;;;;;;11.23;5.30;;;4.80;99.90;;;;;;5039594;28;20050;-70
2021/12/07 11:47:41;;;;;;;15.68;5.85;;;4.70;99.90;;;;;;5041325;28;20057;-70
2021/12/07 11:50:33;;;;;;;13.35;5.57;;;4.70;99.90;;;;;;5042941;28;20101;-70
2021/12/07 11:53:06;;;;;;;13.13;5.50;;;4.60;99.90;;;;;;5040444;28;20052;-70
2021/12/07 11:55:33;;;;;;;15.57;5.43;;;4.70;99.90;;;;;;5054568;28;20141;-70
2021/12/07 11:58:00;;;;;;;13.50;5.90;;;4.50;99.90;;;;;;5021941;28;20536;-70
2021/12/07 12:00:35;;;;;;;14.10;6.40;;;4.40;99.90;;;;;;5041445;28;20061;-70
2021/12/07 12:03:07;;;;;;;13.43;5.78;;;4.30;99.90;;;;;;5042992;28;20073;-70
2021/12/07 12:05:35;;;;;;;14.52;5.72;;;4.30;99.90;;;;;;5040515;28;20381;-70
2021/12/07 12:08:07;;;;;;;14.93;5.57;;;4.30;99.90;;;;;;5041195;28;20132;-70
2021/12/07 12:10:33;;;;;;;16.48;6.30;;;4.30;99.90;;;;;;5039796;28;20060;-70
2021/12/07 12:13:15;;;;;;;10.30;5.93;;;4.40;99.90;;;;;;5041593;28;20045;-70
2021/12/07 12:15:59;;;;;;;14.38;6.25;;;4.50;99.90;;;;;;5041622;28;20045;-70
2021/12/07 12:18:56;;;;;;;13.60;7.75;;;4.60;99.90;;;;;;5022801;28;20045;-70
2021/12/07 12:21:40;;;;;;;18.75;6.43;;;4.50;99.90;;;;;;5042041;28;20053;-68
2021/12/07 12:24:14;;;;;;;18.98;5.60;;;4.50;99.90;;;;;;5041006;28;20076;-68
2021/12/07 12:26:44;;;;;;;13.07;6.65;;;4.60;99.90;;;;;;5040153;28;20041;-68
2021/12/07 12:29:24;;;;;;;17.17;5.60;;;4.70;99.90;;;;;;5042005;28;20127;-69
2021/12/07 12:31:56;;;;;;;13.25;6.45;;;4.80;99.90;;;;;;5039446;28;20065;-69
2021/12/07 12:34:46;;;;;;;16.05;6.90;;;4.90;99.90;;;;;;5040024;28;20108;-68
2021/12/07 12:37:19;;;;;;;15.65;6.13;;;4.90;99.90;;;;;;5034939;28;20064;-69
2021/12/07 12:39:57;;;;;;;12.35;5.95;;;5.20;99.90;;;;;;5038078;28;20054;-69
2021/12/07 12:42:42;;;;;;;14.55;6.28;;;5.40;99.90;;;;;;5041562;28;20045;-69
2021/12/07 12:45:27;;;;;;;11.35;5.88;;;5.50;99.90;;;;;;5023745;28;20049;-69
2021/12/07 12:47:55;;;;;;;15.00;5.35;;;5.40;99.90;;;;;;5039824;28;20124;-69
2021/12/07 12:50:43;;;;;;;11.50;6.18;;;5.40;99.90;;;;;;5039957;28;20037;-69
2021/12/07 12:53:15;;;;;;;12.32;6.25;;;5.40;99.90;;;;;;5034547;28;20410;-66
2021/12/07 12:55:51;;;;;;;12.55;5.95;;;5.40;99.90;;;;;;5056738;28;20513;-69
2021/12/07 12:58:29;;;;;;;;;;;5.30;99.90;;;;;;5073786;28;20091;-70
2021/12/07 13:01:13;;;;;;;15.02;5.80;;;5.20;99.90;;;;;;5071321;28;20324;-70
2021/12/07 13:03:46;;;;;;;16.77;6.00;;;5.20;99.90;;;;;;5040260;28;20057;-71
2021/12/07 13:06:15;;;;;;;12.25;5.60;;;5.20;99.90;;;;;;5038661;28;20047;-70
2021/12/07 13:08:52;;;;;;;12.27;5.85;;;5.30;99.90;;;;;;5056197;28;20052;-71
2021/12/07 13:11:33;;;;;;;10.43;5.18;;;5.40;99.90;;;;;;5057415;28;20441;-70
2021/12/07 13:13:59;;;;;;;13.93;6.60;;;5.40;99.90;;;;;;5054702;28;20069;-70
2021/12/07 13:16:25;;;;;;;7.82;4.75;;;5.30;99.90;;;;;;5072971;28;20052;-70
2021/12/07 13:19:04;;;;;;;13.05;6.30;;;5.30;99.90;;;;;;5021604;28;20500;-70
2021/12/07 13:21:34;;;;;;;15.02;6.00;;;5.30;99.90;;;;;;5040438;28;20054;-70
2021/12/07 13:24:16;;;;;;;11.98;5.70;;;5.30;99.90;;;;;;5055982;28;20053;-70
2021/12/07 13:26:49;;;;;;;12.68;5.88;;;5.30;99.90;;;;;;5036970;28;20540;-70
2021/12/07 13:29:26;;;;;;;13.68;5.38;;;5.40;99.90;;;;;;5041082;28;20096;-70
2021/12/07 13:31:57;;;;;;;12.80;5.75;;;5.40;99.90;;;;;;5037604;28;20096;-70
2021/12/07 13:34:32;;;;;;;10.57;4.63;;;5.40;99.90;;;;;;5022605;28;20055;-69
2021/12/07 13:37:04;;;;;;;20.30;6.15;;;5.40;99.90;;;;;;5039792;28;20053;-70
2021/12/07 13:39:41;;;;;;;14.20;5.80;;;5.40;99.90;;;;;;5041446;28;20053;-69
2021/12/07 13:42:17;;;;;;;13.85;5.65;;;5.40;99.90;;;;;;5059409;28;20061;-69
2021/12/07 13:45:17;;;;;;;13.13;6.00;;;5.40;99.90;;;;;;5057658;28;20235;-71
2021/12/07 13:47:45;;;;;;;11.45;6.55;;;5.40;99.90;;;;;;5049900;28;20619;-70
2021/12/07 13:50:17;;;;;;;14.65;6.43;;;5.30;99.90;;;;;;5076083;28;20041;-71
2021/12/07 13:52:46;;;;;;;22.38;6.88;;;5.20;99.90;;;;;;5058336;28;20034;-71
2021/12/07 13:55:15;;;;;;;17.85;7.60;;;5.20;99.90;;;;;;5039596;28;20046;-70
2021/12/07 13:57:42;;;;;;;16.90;7.15;;;5.10;99.90;;;;;;5038133;28;20048;-70
2021/12/07 14:00:19;;;;;;;11.88;6.18;;;5.10;99.90;;;;;;5037753;28;20060;-72
2021/12/07 14:03:08;;;;;;;15.30;7.22;;;5.10;99.90;;;;;;5039523;28;20049;-71
2021/12/07 14:05:39;;;;;;;15.23;7.13;;;5.20;99.90;;;;;;5036972;28;20044;-70
2021/12/07 14:08:08;;;;;;;14.20;6.57;;;5.20;99.90;;;;;;5038499;28;20053;-70
2021/12/07 14:10:39;;;;;;;17.65;7.53;;;5.10;99.90;;;;;;5039886;28;20049;-70
2021/12/07 14:13:05;;;;;;;13.98;7.53;;;5.00;99.90;;;;;;5038315;28;20046;-70
2021/12/07 14:15:38;;;;;;;12.27;7.57;;;4.90;99.90;;;;;;5039244;28;20042;-71
2021/12/07 14:18:11;;;;;;;17.17;7.85;;;4.90;99.90;;;;;;5053223;28;20042;-70
2021/12/07 14:20:49;;;;;;;15.57;7.05;;;4.80;99.90;;;;;;5040906;28;20073;-70
2021/12/07 14:23:21;;;;;;;23.17;8.70;;;4.80;99.90;;;;;;5038240;28;20495;-70
2021/12/07 14:25:47;;;;;;;15.98;6.82;;;4.70;99.90;;;;;;5021265;28;20043;-70
2021/12/07 14:28:32;;;;;;;17.58;7.05;;;4.70;99.90;;;;;;5040434;28;20052;-70
2021/12/07 14:31:00;;;;;;;15.80;7.60;;;4.60;99.90;;;;;;5070349;28;20071;-70
2021/12/07 14:33:27;;;;;;;22.10;7.72;;;4.60;99.90;;;;;;5038651;28;20045;-70
2021/12/07 14:35:53;;;;;;;19.52;8.15;;;4.60;99.90;;;;;;5020105;28;20463;-70
2021/12/07 14:38:18;;;;;;;17.20;7.57;;;4.50;99.90;;;;;;5022553;28;20055;-70
2021/12/07 14:40:45;;;;;;;18.30;7.93;;;4.50;99.90;;;;;;5054746;28;20096;-70
2021/12/07 14:43:11;;;;;;;16.42;7.63;;;4.50;99.90;;;;;;5020641;28;20049;-70
2021/12/07 14:45:37;;;;;;;17.00;7.55;;;4.40;99.90;;;;;;5071922;28;20402;-70
2021/12/07 14:48:04;;;;;;;17.60;8.85;;;4.40;99.90;;;;;;5069969;28;20079;-69